createdAt,value
2023-04-20T00:02:07.249Z,19.37
2023-04-20T00:04:39.497Z,19.36
2023-04-20T00:07:12.732Z,19.39
2023-04-20T00:09:52.727Z,19.35
2023-04-20T00:15:10.553Z,19.32
2023-04-20T00:17:46.921Z,19.30
2023-04-20T00:20:23.160Z,19.26
2023-04-20T00:23:03.870Z,19.26
2023-04-20T00:25:41.105Z,19.25
2023-04-20T00:28:11.445Z,19.23
2023-04-20T00:30:43.351Z,19.24
2023-04-20T00:33:23.531Z,19.24
2023-04-20T00:36:00.326Z,19.19
2023-04-20T00:41:30.090Z,19.14
2023-04-20T00:44:12.698Z,19.09
2023-04-20T00:47:01.326Z,19.08
2023-04-20T00:49:40.146Z,19.09
2023-04-20T00:52:07.563Z,19.06
2023-04-20T00:54:37.319Z,19.07
2023-04-20T00:57:16.718Z,19.05
2023-04-20T00:59:48.755Z,19.10
2023-04-20T01:02:16.120Z,19.02
2023-04-20T01:04:43.444Z,19.03
2023-04-20T01:07:12.821Z,19.00
2023-04-20T01:09:40.114Z,18.97
2023-04-20T01:12:14.138Z,18.92
2023-04-20T01:14:41.455Z,18.90
2023-04-20T01:17:17.668Z,18.86
2023-04-20T01:19:46.848Z,18.86
2023-04-20T01:22:23.304Z,18.86
2023-04-20T01:25:02.986Z,18.88
2023-04-20T01:27:32.397Z,18.90
2023-04-20T01:30:02.248Z,18.88
2023-04-20T01:32:41.774Z,18.80
2023-04-20T01:35:16.640Z,18.82
2023-04-20T01:37:52.700Z,18.79
2023-04-20T01:40:20.443Z,18.77
2023-04-20T01:43:02.669Z,18.75
2023-04-20T01:45:32.265Z,18.72
2023-04-20T01:48:03.688Z,18.78
2023-04-20T01:50:32.741Z,18.77
2023-04-20T01:53:00.128Z,18.73
2023-04-20T01:55:27.558Z,18.74
2023-04-20T01:57:54.709Z,18.65
2023-04-20T02:00:26.093Z,18.69
2023-04-20T02:02:55.883Z,18.58
2023-04-20T02:05:26.431Z,18.61
2023-04-20T02:07:53.999Z,18.54
2023-04-20T02:10:22.571Z,18.52
2023-04-20T02:12:53.648Z,18.51
2023-04-20T02:15:24.019Z,18.51
2023-04-20T02:18:00.658Z,18.51
2023-04-20T02:20:30.934Z,18.50
2023-04-20T02:23:01.120Z,18.50
2023-04-20T02:25:30.635Z,18.49
2023-04-20T02:28:00.060Z,18.45
2023-04-20T02:30:27.381Z,18.45
2023-04-20T02:32:57.488Z,18.44
2023-04-20T02:35:27.941Z,18.42
2023-04-20T02:37:55.215Z,18.41
2023-04-20T02:40:25.340Z,18.40
2023-04-20T02:42:56.129Z,18.40
2023-04-20T02:45:26.209Z,18.41
2023-04-20T02:48:02.534Z,18.39
2023-04-20T02:50:31.890Z,18.39
2023-04-20T02:53:25.385Z,18.29
2023-04-20T02:56:05.753Z,18.31
2023-04-20T02:58:42.022Z,18.29
2023-04-20T03:01:35.418Z,18.33
2023-04-20T03:04:10.438Z,18.27
2023-04-20T03:06:44.514Z,18.29
2023-04-20T03:09:16.537Z,18.33
2023-04-20T03:12:16.114Z,18.32
2023-04-20T03:15:18.807Z,18.27
2023-04-20T03:18:04.903Z,18.25
2023-04-20T03:20:32.826Z,18.19
2023-04-20T03:23:02.561Z,18.19
2023-04-20T03:25:30.117Z,18.19
2023-04-20T03:28:03.528Z,18.18
2023-04-20T03:30:31.277Z,18.16
2023-04-20T03:33:12.611Z,18.17
2023-04-20T03:35:40.113Z,18.18
2023-04-20T03:38:07.352Z,18.18
2023-04-20T03:40:34.826Z,18.17
2023-04-20T03:43:05.250Z,18.14
2023-04-20T03:45:32.995Z,18.18
2023-04-20T03:48:08.629Z,18.10
2023-04-20T03:50:35.999Z,18.07
2023-04-20T03:53:06.714Z,18.08
2023-04-20T03:55:34.003Z,18.02
2023-04-20T03:58:11.272Z,17.98
2023-04-20T04:00:53.799Z,17.96
2023-04-20T04:03:25.079Z,17.90
2023-04-20T04:05:52.495Z,17.91
2023-04-20T04:08:20.908Z,17.90
2023-04-20T04:10:51.603Z,17.90
2023-04-20T04:13:23.374Z,17.86
2023-04-20T04:15:53.903Z,17.88
2023-04-20T04:18:25.388Z,17.84
2023-04-20T04:20:55.328Z,17.79
2023-04-20T04:23:25.339Z,17.79
2023-04-20T04:26:08.589Z,17.74
2023-04-20T04:28:37.816Z,17.69
2023-04-20T04:31:17.708Z,17.73
2023-04-20T04:33:47.681Z,17.71
2023-04-20T04:36:27.383Z,17.72
2023-04-20T04:38:57.562Z,17.76
2023-04-20T04:41:26.624Z,17.65
2023-04-20T04:44:06.754Z,17.60
2023-04-20T04:46:53.166Z,17.52
2023-04-20T04:49:25.318Z,17.42
2023-04-20T04:51:57.644Z,17.39
2023-04-20T04:54:32.236Z,17.48
2023-04-20T04:56:59.427Z,17.57
2023-04-20T04:59:43.270Z,17.59
2023-04-20T05:05:20.017Z,17.42
2023-04-20T05:08:02.557Z,17.35
2023-04-20T05:14:19.715Z,17.36
2023-04-20T05:17:05.212Z,17.40
2023-04-20T05:19:45.445Z,17.43
2023-04-20T05:22:50.676Z,17.34
2023-04-20T05:25:43.171Z,17.39
2023-04-20T05:29:02.926Z,17.41
2023-04-20T05:32:03.456Z,17.35
2023-04-20T05:35:01.978Z,17.26
2023-04-20T05:37:58.253Z,17.32
2023-04-20T05:40:37.962Z,17.41
2023-04-20T05:43:29.826Z,17.46
2023-04-20T05:46:25.246Z,17.46
2023-04-20T05:49:09.908Z,17.49
2023-04-20T05:55:02.940Z,17.55
2023-04-20T05:57:55.204Z,17.58
2023-04-20T06:00:32.268Z,17.65
2023-04-20T06:03:07.582Z,17.66
2023-04-20T06:06:00.411Z,17.71
2023-04-20T06:09:05.474Z,17.75
2023-04-20T06:12:04.692Z,17.79
2023-04-20T06:14:57.127Z,17.89
2023-04-20T06:18:29.836Z,17.88
2023-04-20T06:21:03.173Z,17.79
2023-04-20T06:24:04.111Z,17.77
2023-04-20T06:30:36.925Z,17.79
2023-04-20T06:33:32.324Z,17.84
2023-04-20T06:36:33.880Z,17.91
2023-04-20T06:39:06.060Z,17.96
2023-04-20T06:41:50.290Z,18.08
2023-04-20T06:44:26.246Z,18.13
2023-04-20T06:47:08.005Z,18.25
2023-04-20T06:49:47.492Z,18.19
2023-04-20T06:52:24.174Z,18.32
2023-04-20T06:54:55.813Z,18.35
2023-04-20T06:57:27.891Z,18.42
2023-04-20T07:00:01.940Z,18.54
2023-04-20T07:02:45.905Z,18.59
2023-04-20T07:05:14.062Z,18.72
2023-04-20T07:07:44.461Z,18.74
2023-04-20T07:10:16.201Z,18.83
2023-04-20T07:13:03.916Z,18.84
2023-04-20T07:15:40.195Z,18.97
2023-04-20T07:18:07.694Z,19.06
2023-04-20T07:20:41.456Z,19.11
2023-04-20T07:23:10.709Z,19.19
2023-04-20T07:25:40.677Z,19.11
2023-04-20T07:28:15.803Z,19.21
2023-04-20T07:30:44.088Z,19.34
2023-04-20T07:36:04.155Z,19.59
2023-04-20T07:41:38.107Z,19.45
2023-04-20T07:44:29.324Z,19.32
2023-04-20T07:46:59.572Z,19.15
2023-04-20T07:49:41.149Z,19.72
2023-04-20T07:52:21.256Z,19.54
2023-04-20T07:54:56.480Z,19.77
2023-04-20T07:57:30.400Z,19.69
2023-04-20T08:00:05.934Z,19.71
2023-04-20T08:02:45.463Z,19.77
2023-04-20T08:05:21.633Z,19.74
2023-04-20T08:07:54.726Z,19.84
2023-04-20T08:10:25.194Z,19.98
2023-04-20T08:13:09.162Z,20.20
2023-04-20T08:15:39.632Z,20.75
2023-04-20T08:18:16.117Z,20.42
2023-04-20T08:20:52.211Z,20.73
2023-04-20T08:26:21.105Z,20.55
2023-04-20T08:28:48.375Z,20.75
2023-04-20T08:31:36.542Z,20.94
2023-04-20T08:34:32.217Z,21.18
2023-04-20T08:39:56.926Z,20.55
2023-04-20T08:42:29.243Z,21.38
2023-04-20T08:45:06.402Z,21.82
2023-04-20T08:47:42.782Z,21.44
2023-04-20T08:50:38.667Z,22.00
2023-04-20T08:53:23.043Z,22.03
2023-04-20T08:56:00.531Z,21.98
2023-04-20T08:58:44.227Z,22.44
2023-04-20T09:01:22.681Z,22.76
2023-04-20T09:04:30.812Z,23.21
2023-04-20T09:07:22.941Z,22.36
2023-04-20T09:09:56.588Z,22.81
2023-04-20T09:12:29.938Z,23.08
2023-04-20T09:15:25.418Z,23.34
2023-04-20T09:17:54.970Z,23.94
2023-04-20T09:20:55.951Z,23.45
2023-04-20T09:23:34.774Z,24.37
2023-04-20T09:26:21.454Z,24.58
2023-04-20T09:29:03.449Z,24.56
2023-04-20T09:31:31.058Z,24.60
2023-04-20T09:34:21.727Z,24.58
2023-04-20T09:36:58.795Z,24.39
2023-04-20T09:39:30.775Z,23.73
2023-04-20T09:42:08.427Z,24.46
2023-04-20T09:44:46.249Z,23.80
2023-04-20T09:47:36.598Z,24.18
2023-04-20T09:52:59.897Z,23.92
2023-04-20T09:55:28.896Z,23.97
2023-04-20T09:58:05.357Z,24.06
2023-04-20T10:00:35.411Z,24.75
2023-04-20T10:03:14.778Z,24.55
2023-04-20T10:05:46.499Z,24.17
2023-04-20T10:08:18.671Z,24.40
2023-04-20T10:10:59.585Z,24.65
2023-04-20T10:13:37.175Z,23.64
2023-04-20T10:16:24.030Z,24.51
2023-04-20T10:19:09.051Z,25.04
2023-04-20T10:22:02.720Z,24.40
2023-04-20T10:24:45.666Z,24.20
2023-04-20T10:27:40.227Z,24.62
2023-04-20T10:30:19.954Z,23.86
2023-04-20T10:32:52.245Z,24.57
2023-04-20T10:35:24.581Z,24.48
2023-04-20T10:38:10.831Z,24.99
2023-04-20T10:41:16.995Z,25.05
2023-04-20T10:43:51.312Z,24.69
2023-04-20T10:46:29.984Z,24.65
2023-04-20T10:49:09.329Z,24.44
2023-04-20T10:51:44.531Z,24.08
2023-04-20T10:54:20.915Z,24.75
2023-04-20T10:56:57.443Z,24.68
2023-04-20T10:59:30.396Z,24.31
2023-04-20T11:08:20.557Z,25.45
2023-04-20T11:11:00.591Z,25.59
2023-04-20T11:13:38.269Z,25.25
2023-04-20T11:16:18.583Z,25.76
2023-04-20T11:19:07.678Z,25.35
2023-04-20T11:21:38.629Z,25.08
2023-04-20T11:24:22.319Z,25.81
2023-04-20T11:26:57.606Z,25.97
2023-04-20T11:29:38.978Z,26.23
2023-04-20T11:32:36.992Z,25.27
2023-04-20T11:38:00.660Z,25.44
2023-04-20T11:40:39.281Z,25.62
2023-04-20T11:43:19.457Z,25.74
2023-04-20T11:45:58.841Z,25.73
2023-04-20T11:48:43.378Z,25.91
2023-04-20T11:51:20.154Z,25.72
2023-04-20T11:53:54.643Z,25.99
2023-04-20T11:56:33.628Z,25.83
2023-04-20T11:59:15.337Z,24.77
2023-04-20T12:01:42.708Z,24.44
2023-04-20T12:04:16.746Z,24.51
2023-04-20T12:06:53.535Z,24.95
2023-04-20T12:09:23.638Z,25.60
2023-04-20T12:12:00.161Z,25.45
2023-04-20T12:14:30.589Z,26.42
2023-04-20T12:17:19.835Z,24.55
2023-04-20T12:19:57.601Z,25.04
2023-04-20T12:22:39.460Z,25.49
2023-04-20T12:25:25.843Z,26.28
2023-04-20T12:27:53.207Z,26.22
2023-04-20T12:30:20.544Z,25.73
2023-04-20T12:32:53.758Z,25.39
2023-04-20T12:35:29.960Z,24.18
2023-04-20T12:38:02.889Z,25.39
2023-04-20T12:40:30.081Z,24.65
2023-04-20T12:42:59.534Z,24.73
2023-04-20T12:45:28.433Z,24.63
2023-04-20T12:48:00.384Z,24.11
2023-04-20T12:50:27.984Z,24.58
2023-04-20T12:52:56.286Z,25.03
2023-04-20T12:55:23.483Z,24.40
2023-04-20T12:57:51.277Z,24.16
2023-04-20T13:00:19.172Z,25.07
2023-04-20T13:02:46.379Z,23.96
2023-04-20T13:05:16.730Z,24.25
2023-04-20T13:07:43.941Z,24.30
2023-04-20T13:10:21.643Z,23.77
2023-04-20T13:13:06.893Z,24.41
2023-04-20T13:15:39.123Z,23.90
2023-04-20T13:18:07.703Z,24.16
2023-04-20T13:20:34.983Z,23.87
2023-04-20T13:23:04.448Z,24.73
2023-04-20T13:25:34.846Z,24.85
2023-04-20T13:28:06.210Z,23.90
2023-04-20T13:30:36.119Z,23.93
2023-04-20T13:33:03.832Z,24.22
2023-04-20T13:35:31.911Z,23.45
2023-04-20T13:37:59.284Z,23.43
2023-04-20T13:40:26.421Z,23.63
2023-04-20T13:42:53.992Z,23.17
2023-04-20T13:45:23.484Z,23.38
2023-04-20T13:47:50.923Z,23.40
2023-04-20T13:50:18.044Z,23.51
2023-04-20T13:52:48.534Z,23.93
2023-04-20T13:55:15.908Z,22.46
2023-04-20T13:57:44.500Z,23.49
2023-04-20T14:00:12.378Z,24.06
2023-04-20T14:02:40.074Z,24.26
2023-04-20T14:05:07.701Z,23.98
2023-04-20T14:07:34.855Z,22.97
2023-04-20T14:10:02.119Z,23.88
2023-04-20T14:12:29.431Z,24.56
2023-04-20T14:15:02.919Z,23.93
2023-04-20T14:17:30.917Z,23.39
2023-04-20T14:19:58.033Z,23.36
2023-04-20T14:22:25.282Z,23.92
2023-04-20T14:24:52.428Z,24.16
2023-04-20T14:27:19.603Z,23.69
2023-04-20T14:29:50.703Z,23.00
2023-04-20T14:32:18.979Z,22.93
2023-04-20T14:34:47.127Z,23.66
2023-04-20T14:37:14.840Z,23.93
2023-04-20T14:39:42.217Z,23.31
2023-04-20T14:42:11.823Z,23.42
2023-04-20T14:44:39.097Z,22.43
2023-04-20T14:47:06.199Z,22.94
2023-04-20T14:49:33.620Z,22.88
2023-04-20T14:52:10.096Z,23.03
2023-04-20T14:54:37.362Z,22.66
2023-04-20T14:59:45.549Z,22.00
2023-04-20T15:02:19.673Z,22.56
2023-04-20T15:04:53.181Z,21.86
2023-04-20T15:07:48.115Z,21.72
2023-04-20T15:10:18.958Z,22.39
2023-04-20T15:12:54.854Z,22.53
2023-04-20T15:15:37.571Z,22.79
2023-04-20T15:18:15.329Z,22.62
2023-04-20T15:20:44.220Z,22.44
2023-04-20T15:23:16.550Z,22.74
2023-04-20T15:25:43.981Z,22.70
2023-04-20T15:28:17.031Z,22.43
2023-04-20T15:30:47.300Z,22.71
2023-04-20T15:33:15.538Z,22.25
2023-04-20T15:35:44.916Z,22.44
2023-04-20T15:38:14.870Z,22.45
2023-04-20T15:40:46.527Z,21.99
2023-04-20T15:43:13.937Z,21.65
2023-04-20T15:45:50.173Z,21.53
2023-04-20T15:48:18.517Z,21.28
2023-04-20T15:50:50.171Z,21.95
2023-04-20T15:53:18.135Z,22.42
2023-04-20T15:55:47.317Z,21.89
2023-04-20T15:58:24.155Z,21.97
2023-04-20T16:00:51.534Z,22.19
2023-04-20T16:03:18.917Z,21.93
2023-04-20T16:05:46.124Z,22.00
2023-04-20T16:08:14.503Z,21.91
2023-04-20T16:10:41.738Z,22.37
2023-04-20T16:13:08.892Z,22.10
2023-04-20T16:15:36.561Z,21.80
2023-04-20T16:18:05.637Z,21.92
2023-04-20T16:20:33.031Z,21.97
2023-04-20T16:23:00.183Z,22.33
2023-04-20T16:25:28.691Z,22.30
2023-04-20T16:27:56.037Z,21.96
2023-04-20T16:30:23.521Z,22.02
2023-04-20T16:32:53.606Z,21.80
2023-04-20T16:35:21.009Z,22.05
2023-04-20T16:37:48.259Z,21.72
2023-04-20T16:40:15.706Z,21.47
2023-04-20T16:42:43.028Z,21.02
2023-04-20T16:45:10.565Z,21.54
2023-04-20T16:47:38.004Z,21.41
2023-04-20T16:50:07.724Z,21.30
2023-04-20T16:52:35.877Z,21.14
2023-04-20T16:55:06.118Z,21.07
2023-04-20T16:57:34.214Z,21.43
2023-04-20T17:00:01.548Z,21.57
2023-04-20T17:02:33.309Z,21.08
2023-04-20T17:05:01.103Z,20.88
2023-04-20T17:07:29.941Z,21.04
2023-04-20T17:09:59.993Z,20.95
2023-04-20T17:12:28.119Z,20.77
2023-04-20T17:14:58.955Z,20.79
2023-04-20T17:17:26.594Z,20.10
2023-04-20T17:19:54.388Z,20.43
2023-04-20T17:22:21.748Z,20.54
2023-04-20T17:24:49.406Z,20.51
2023-04-20T17:27:21.847Z,20.09
2023-04-20T17:29:50.291Z,20.34
2023-04-20T17:32:17.858Z,20.85
2023-04-20T17:34:51.579Z,20.83
2023-04-20T17:37:18.940Z,21.00
2023-04-20T17:39:46.598Z,20.55
2023-04-20T17:42:13.886Z,21.06
2023-04-20T17:44:41.273Z,21.25
2023-04-20T17:47:10.036Z,21.17
2023-04-20T17:49:37.368Z,21.00
2023-04-20T17:52:04.733Z,20.99
2023-04-20T17:54:34.346Z,20.82
2023-04-20T17:57:02.045Z,20.94
2023-04-20T17:59:30.926Z,21.20
2023-04-20T18:01:58.978Z,21.23
2023-04-20T18:04:26.630Z,21.15
2023-04-20T18:06:54.005Z,21.28
2023-04-20T18:09:21.388Z,21.07
2023-04-20T18:11:48.501Z,21.00
2023-04-20T18:14:15.744Z,20.97
2023-04-20T18:16:42.900Z,20.71
2023-04-20T18:19:12.485Z,20.81
2023-04-20T18:21:39.775Z,20.66
2023-04-20T18:24:07.613Z,20.77
2023-04-20T18:26:35.159Z,20.54
2023-04-20T18:29:02.282Z,20.80
2023-04-20T18:31:30.849Z,20.51
2023-04-20T18:33:58.029Z,20.59
2023-04-20T18:36:26.110Z,20.55
2023-04-20T18:38:54.216Z,20.59
2023-04-20T18:41:23.581Z,20.29
2023-04-20T18:43:53.911Z,20.16
2023-04-20T18:46:24.193Z,20.17
2023-04-20T18:48:51.491Z,19.93
2023-04-20T18:51:18.750Z,19.68
2023-04-20T18:53:46.118Z,19.75
2023-04-20T18:56:13.439Z,19.86
2023-04-20T18:58:41.779Z,19.77
2023-04-20T19:01:12.383Z,19.82
2023-04-20T19:03:39.930Z,19.47
2023-04-20T19:06:07.066Z,19.60
2023-04-20T19:08:34.411Z,19.53
2023-04-20T19:11:01.937Z,19.50
2023-04-20T19:13:29.005Z,19.38
2023-04-20T19:15:59.988Z,19.35
2023-04-20T19:18:27.504Z,19.29
2023-04-20T19:20:55.021Z,18.62
2023-04-20T19:23:22.386Z,18.75
2023-04-20T19:25:49.619Z,18.86
2023-04-20T19:28:17.027Z,18.86
2023-04-20T19:30:44.283Z,19.11
2023-04-20T19:33:11.812Z,19.42
2023-04-20T19:35:39.199Z,19.52
2023-04-20T19:38:08.177Z,19.67
2023-04-20T19:40:35.442Z,19.68
2023-04-20T19:43:02.589Z,19.80
2023-04-20T19:45:30.026Z,19.88
2023-04-20T19:47:57.357Z,19.68
2023-04-20T19:50:24.624Z,19.81
2023-04-20T19:52:52.488Z,19.99
2023-04-20T19:55:19.906Z,19.70
2023-04-20T19:57:47.333Z,19.85
2023-04-20T20:00:18.295Z,19.72
2023-04-20T20:02:46.707Z,19.79
2023-04-20T20:05:14.133Z,19.54
2023-04-20T20:07:48.490Z,19.82
2023-04-20T20:10:15.941Z,19.82
2023-04-20T20:12:44.786Z,20.05
2023-04-20T20:15:12.219Z,19.88
2023-04-20T20:17:39.619Z,19.67
2023-04-20T20:20:07.843Z,19.75
2023-04-20T20:22:35.003Z,19.64
2023-04-20T20:25:02.272Z,19.98
2023-04-20T20:27:29.680Z,19.93
2023-04-20T20:29:56.862Z,19.85
2023-04-20T20:32:25.095Z,19.93
2023-04-20T20:34:53.219Z,19.80
2023-04-20T20:37:21.432Z,19.55
2023-04-20T20:39:48.712Z,19.91
2023-04-20T20:42:16.150Z,19.85
2023-04-20T20:44:44.434Z,19.97
2023-04-20T20:47:11.617Z,20.17
2023-04-20T20:49:38.748Z,19.87
2023-04-20T20:52:07.329Z,19.48
2023-04-20T20:54:34.463Z,19.84
2023-04-20T20:57:01.879Z,19.78
2023-04-20T20:59:28.928Z,19.97
2023-04-20T21:01:56.296Z,19.97
2023-04-20T21:04:23.690Z,20.11
2023-04-20T21:06:50.949Z,20.06
2023-04-20T21:09:18.504Z,20.09
2023-04-20T21:11:45.694Z,20.11
2023-04-20T21:14:12.778Z,20.03
2023-04-20T21:16:42.431Z,20.04
2023-04-20T21:19:10.808Z,20.20
2023-04-20T21:21:37.802Z,20.06
2023-04-20T21:24:05.067Z,20.20
2023-04-20T21:26:37.605Z,20.18
2023-04-20T21:29:05.640Z,20.21
2023-04-20T21:31:33.520Z,19.66
2023-04-20T21:34:01.182Z,20.03
2023-04-20T21:36:28.832Z,19.92
2023-04-20T21:38:55.947Z,19.87
2023-04-20T21:41:23.248Z,19.80
2023-04-20T21:43:54.905Z,20.05
2023-04-20T21:46:22.537Z,20.07
2023-04-20T21:48:51.638Z,20.13
2023-04-20T21:51:19.352Z,19.99
2023-04-20T21:53:46.888Z,20.12
2023-04-20T21:56:15.189Z,20.31
2023-04-20T21:58:42.589Z,20.40
2023-04-20T22:01:10.231Z,20.29
2023-04-20T22:03:38.215Z,20.42
2023-04-20T22:06:06.994Z,20.38
2023-04-20T22:08:34.892Z,20.16
2023-04-20T22:11:02.347Z,20.17
2023-04-20T22:13:30.350Z,20.17
2023-04-20T22:15:57.486Z,19.99
2023-04-20T22:18:24.882Z,20.04
2023-04-20T22:20:52.425Z,20.02
2023-04-20T22:23:19.891Z,20.03
2023-04-20T22:25:48.298Z,19.94
2023-04-20T22:28:16.229Z,20.05
2023-04-20T22:30:43.594Z,20.00
2023-04-20T22:33:10.815Z,20.08
2023-04-20T22:35:37.954Z,19.97
2023-04-20T22:38:05.166Z,20.10
2023-04-20T22:40:32.433Z,20.22
2023-04-20T22:43:00.263Z,20.27
2023-04-20T22:45:27.645Z,20.02
2023-04-20T22:47:55.094Z,20.23
2023-04-20T22:50:22.587Z,20.10
2023-04-20T22:52:53.727Z,20.25
2023-04-20T22:55:21.648Z,20.34
2023-04-20T22:57:49.039Z,20.19
2023-04-20T23:00:16.762Z,20.08
2023-04-20T23:02:44.008Z,20.13
2023-04-20T23:05:11.236Z,20.08
2023-04-20T23:07:39.566Z,20.24
2023-04-20T23:10:11.014Z,20.09
2023-04-20T23:12:38.596Z,20.21
2023-04-20T23:15:06.214Z,20.06
2023-04-20T23:17:34.242Z,20.10
2023-04-20T23:20:01.266Z,20.01
2023-04-20T23:22:28.420Z,20.14
2023-04-20T23:24:57.808Z,20.21
2023-04-20T23:27:25.016Z,20.17
2023-04-20T23:29:52.143Z,20.13
2023-04-20T23:32:19.257Z,20.15
2023-04-20T23:34:46.864Z,19.95
2023-04-20T23:37:16.904Z,19.91
2023-04-20T23:39:44.050Z,19.98
2023-04-20T23:42:11.119Z,19.81
2023-04-20T23:44:38.292Z,19.83
2023-04-20T23:47:05.665Z,19.93
2023-04-20T23:49:32.784Z,19.97
2023-04-20T23:51:59.884Z,20.15
2023-04-20T23:54:27.189Z,20.13
2023-04-20T23:56:55.587Z,19.86
2023-04-20T23:59:23.055Z,20.01
